Time;durP1;ratioP1;P1;durP2;ratioP2;P2;SDS_P1;SDS_P2;PMS_P1;PMS_P2;Temp;Humidity;BMP_temperature;BMP_pressure;BME280_temperature;BME280_humidity;BME280_pressure;Samples;Min_cycle;Max_cycle;Signal;HPM_P1;HPM_P2
2021/04/15 00:01:35;;;;;;;;;;;;;;;2.70;88.37;100980.41;1728141;82;26358;-74
2021/04/15 00:04:03;;;;;;;;;;;;;;;2.72;88.29;100973.19;1707785;83;26911;-74
2021/04/15 00:06:30;;;;;;;;;;;;;;;2.73;88.57;100969.59;1729637;82;25719;-74
2021/04/15 00:08:59;;;;;;;;;;;;;;;2.75;88.44;100969.45;1707339;82;25883;-74
2021/04/15 00:11:31;;;;;;;;;;;;;;;2.75;88.55;100972.09;1727470;82;25776;-74
2021/04/15 00:13:59;;;;;;;;;;;;;;;2.76;88.52;100965.34;1689733;82;26093;-75
2021/04/15 00:16:28;;;;;;;;;;;;;;;2.78;88.55;100967.38;1713800;82;28250;-74
2021/04/15 00:18:55;;;;;;;;;;;;;;;2.79;88.48;100958.97;1697610;82;26411;-75
2021/04/15 00:21:23;;;;;;;;;;;;;;;2.81;88.72;100964.48;1710372;82;25951;-74
2021/04/15 00:23:50;;;;;;;;;;;;;;;2.82;88.66;100962.69;1692441;82;25393;-74
2021/04/15 00:26:19;;;;;;;;;;;;;;;2.82;88.96;100961.37;1650108;82;26504;-74
2021/04/15 00:28:46;;;;;;;;;;;;;;;2.82;89.01;100957.41;1715102;82;26843;-74
2021/04/15 00:31:13;;;;;;;;;;;;;;;2.84;88.98;100966.05;1714560;82;25813;-73
2021/04/15 00:33:40;;;;;;;;;;;;;;;2.84;88.74;100957.63;1704585;82;25703;-74
2021/04/15 00:36:07;;;;;;;;;;;;;;;2.85;88.75;100955.33;1702293;82;25842;-74
2021/04/15 00:38:35;;;;;;;;;;;;;;;2.85;88.93;100953.16;1703802;82;25783;-74
2021/04/15 00:41:03;;;;;;;;;;;;;;;2.82;88.97;100955.57;1699918;82;27592;-74
2021/04/15 00:43:34;;;;;;;;;;;;;;;2.83;88.71;100954.62;1726573;82;25800;-74
2021/04/15 00:46:07;;;;;;;;;;;;;;;2.84;88.81;100954.98;1695939;82;25843;-73
2021/04/15 00:48:42;;;;;;;;;;;;;;;2.83;88.97;100951.13;1694196;82;26577;-74
2021/04/15 00:51:25;;;;;;;;;;;;;;;2.82;89.11;100952.11;1702623;82;26154;-74
2021/04/15 00:53:56;;;;;;;;;;;;;;;2.81;89.04;100955.23;1716736;82;27535;-74
2021/04/15 00:56:23;;;;;;;;;;;;;;;2.80;89.09;100952.22;1699742;82;25849;-74
2021/04/15 00:58:50;;;;;;;;;;;;;;;2.80;89.00;100948.25;1696956;82;25955;-74
2021/04/15 01:01:18;;;;;;;;;;;;;;;2.80;88.94;100952.72;1698963;82;26421;-74
2021/04/15 01:03:45;;;;;;;;;;;;;;;2.80;88.79;100946.92;1695841;82;26182;-73
2021/04/15 01:06:14;;;;;;;;;;;;;;;2.80;88.88;100949.57;1695761;82;28448;-73
2021/04/15 01:08:42;;;;;;;;;;;;;;;2.78;88.97;100939.60;1699762;82;26052;-74
2021/04/15 01:11:33;;;;;;;;;;;;;;;2.77;88.80;100944.55;1715153;82;25894;-74
2021/04/15 01:14:20;;;;;;;;;;;;;;;2.74;88.87;100943.48;1717459;82;25888;-73
2021/04/15 01:17:02;;;;;;;;;;;;;;;2.73;88.99;100942.29;1741983;82;25792;-74
2021/04/15 01:19:57;;;;;;;;;;;;;;;2.71;88.93;100936.30;1701856;83;27626;-75
2021/04/15 01:22:51;;;;;;;;;;;;;;;2.69;89.06;100936.43;1705512;82;26602;-73
2021/04/15 01:25:31;;;;;;;;;;;;;;;2.68;89.00;100938.70;1706247;82;26498;-74
2021/04/15 01:28:04;;;;;;;;;;;;;;;2.68;88.97;100931.25;1714609;82;25879;-74
2021/04/15 01:30:41;;;;;;;;;;;;;;;2.67;89.00;100926.94;1705890;82;25799;-73
2021/04/15 01:33:15;;;;;;;;;;;;;;;2.67;88.87;100930.44;1720831;82;27547;-74
2021/04/15 01:35:48;;;;;;;;;;;;;;;2.69;88.84;100930.30;1728498;80;26171;-73
2021/04/15 01:38:40;;;;;;;;;;;;;;;2.69;88.76;100919.72;1717157;82;25801;-73
2021/04/15 01:41:17;;;;;;;;;;;;;;;2.70;88.66;100922.22;1726512;82;26429;-73
2021/04/15 01:43:50;;;;;;;;;;;;;;;2.70;88.67;100914.77;1709384;82;25877;-74
2021/04/15 01:46:19;;;;;;;;;;;;;;;2.68;88.85;100908.29;1719159;82;27514;-73
2021/04/15 01:48:49;;;;;;;;;;;;;;;2.68;88.89;100920.67;1680640;82;25841;-74
2021/04/15 01:51:22;;;;;;;;;;;;;;;2.68;88.76;100913.58;1709913;82;26149;-73
2021/04/15 01:53:55;;;;;;;;;;;;;;;2.69;88.88;100915.75;1706215;82;25858;-74
2021/04/15 01:56:35;;;;;;;;;;;;;;;2.68;88.76;100912.25;1705614;82;25810;-74
2021/04/15 01:59:14;;;;;;;;;;;;;;;2.70;88.69;100912.12;1708583;82;27543;-73
2021/04/15 02:01:46;;;;;;;;;;;;;;;2.69;88.60;100902.52;1708867;82;25854;-74
2021/04/15 02:04:16;;;;;;;;;;;;;;;2.71;88.83;100902.76;1727815;82;25814;-73
2021/04/15 02:06:45;;;;;;;;;;;;;;;2.72;88.83;100900.92;1710959;82;25747;-74
2021/04/15 02:09:14;;;;;;;;;;;;;;;2.70;89.04;100899.74;1706716;82;26405;-74
2021/04/15 02:11:56;;;;;;;;;;;;;;;2.70;88.84;100897.09;1703908;82;28459;-74
2021/04/15 02:14:25;;;;;;;;;;;;;;;2.71;88.98;100893.98;1707464;82;25807;-73
2021/04/15 02:16:54;;;;;;;;;;;;;;;2.72;88.91;100897.80;1697190;82;25871;-74
2021/04/15 02:19:45;;;;;;;;;;;;;;;2.72;88.93;100889.87;1677902;82;25903;-74
2021/04/15 02:22:18;;;;;;;;;;;;;;;2.73;89.01;100892.88;1693787;82;26016;-73
2021/04/15 02:25:00;;;;;;;;;;;;;;;2.72;88.90;100891.19;1731597;82;27535;-74
2021/04/15 02:27:46;;;;;;;;;;;;;;;2.73;89.26;100889.39;1696510;82;25784;-73
2021/04/15 02:30:20;;;;;;;;;;;;;;;2.71;88.97;100886.89;1723137;82;25898;-74
2021/04/15 02:33:06;;;;;;;;;;;;;;;2.73;89.11;100888.07;1704599;82;25744;-74
2021/04/15 02:35:45;;;;;;;;;;;;;;;2.74;88.95;100884.44;1696319;82;26380;-74
2021/04/15 02:38:13;;;;;;;;;;;;;;;2.74;88.91;100880.47;1699966;82;27410;-74
2021/04/15 02:40:46;;;;;;;;;;;;;;;2.73;88.81;100884.95;1710898;82;26174;-74
2021/04/15 02:43:26;;;;;;;;;;;;;;;2.73;88.85;100882.30;1711855;82;26459;-74
2021/04/15 02:45:54;;;;;;;;;;;;;;;2.73;88.80;100883.63;1744517;82;25695;-74
2021/04/15 02:48:30;;;;;;;;;;;;;;;2.74;88.95;100883.12;1709413;82;25796;-74
2021/04/15 02:51:00;;;;;;;;;;;;;;;2.71;88.91;100874.14;1695900;82;26588;-75
2021/04/15 02:53:43;;;;;;;;;;;;;;;2.69;89.12;100878.25;1698004;82;26399;-74
2021/04/15 02:56:20;;;;;;;;;;;;;;;2.67;89.02;100877.54;1739392;82;25709;-74
2021/04/15 02:58:59;;;;;;;;;;;;;;;2.66;88.89;100876.33;1712663;82;25607;-74
2021/04/15 03:01:32;;;;;;;;;;;;;;;2.64;89.24;100870.33;1697245;82;26488;-74
2021/04/15 03:04:00;;;;;;;;;;;;;;;2.61;89.08;100871.42;1700440;82;27622;-75
2021/04/15 03:06:31;;;;;;;;;;;;;;;2.61;88.92;100875.89;1730785;80;25411;-74
2021/04/15 03:09:01;;;;;;;;;;;;;;;2.61;89.38;100871.42;1729305;82;26281;-75
2021/04/15 03:11:34;;;;;;;;;;;;;;;2.57;89.05;100866.03;1699218;82;26225;-74
2021/04/15 03:14:05;;;;;;;;;;;;;;;2.57;89.01;100861.22;1700636;82;25809;-74
2021/04/15 03:16:35;;;;;;;;;;;;;;;2.54;89.14;100870.28;1719322;82;27541;-75
2021/04/15 03:19:06;;;;;;;;;;;;;;;2.52;88.91;100865.61;1703586;82;25958;-74
2021/04/15 03:21:36;;;;;;;;;;;;;;;2.52;88.82;100862.96;1705656;82;25916;-75
2021/04/15 03:24:12;;;;;;;;;;;;;;;2.49;88.93;100863.20;1705472;82;26444;-74
2021/04/15 03:26:48;;;;;;;;;;;;;;;2.50;88.86;100866.22;1730645;82;25803;-74
2021/04/15 03:29:31;;;;;;;;;;;;;;;2.47;88.80;100869.58;1729031;82;28421;-75
2021/04/15 03:32:11;;;;;;;;;;;;;;;2.48;88.85;100868.63;1682138;82;25838;-74
2021/04/15 03:35:00;;;;;;;;;;;;;;;2.45;89.06;100863.11;1705761;82;25387;-75
2021/04/15 03:37:30;;;;;;;;;;;;;;;2.45;89.09;100866.23;1725050;82;25842;-74
2021/04/15 03:39:58;;;;;;;;;;;;;;;2.43;89.20;100869.02;1715875;82;25962;-75
2021/04/15 03:42:31;;;;;;;;;;;;;;;2.42;89.09;100863.86;1673577;83;28454;-74
2021/04/15 03:45:07;;;;;;;;;;;;;;;2.40;89.12;100869.25;1737831;81;26199;-74
2021/04/15 03:47:37;;;;;;;;;;;;;;;2.39;88.95;100867.59;1726327;82;25816;-74
2021/04/15 03:50:10;;;;;;;;;;;;;;;2.38;89.09;100873.84;1721843;82;25836;-75
2021/04/15 03:52:40;;;;;;;;;;;;;;;2.38;89.02;100867.22;1739942;82;26322;-74
2021/04/15 03:55:13;;;;;;;;;;;;;;;2.40;88.89;100869.25;1704546;82;28522;-74
2021/04/15 03:57:42;;;;;;;;;;;;;;;2.40;89.08;100869.73;1697930;82;25804;-75
2021/04/15 04:00:13;;;;;;;;;;;;;;;2.38;88.93;100865.91;1721501;82;25828;-73
2021/04/15 04:02:43;;;;;;;;;;;;;;;2.34;89.06;100864.48;1728345;82;25843;-75
2021/04/15 04:05:28;;;;;;;;;;;;;;;2.33;89.11;100867.61;1707374;82;26275;-73
2021/04/15 04:07:59;;;;;;;;;;;;;;;2.34;89.03;100864.02;1708036;82;27600;-74
2021/04/15 04:10:40;;;;;;;;;;;;;;;2.36;88.99;100867.84;1708463;82;26093;-74
2021/04/15 04:13:22;;;;;;;;;;;;;;;2.37;89.01;100866.05;1723228;82;25808;-74
2021/04/15 04:15:55;;;;;;;;;;;;;;;2.38;88.97;100862.41;1728052;82;26401;-74
2021/04/15 04:18:46;;;;;;;;;;;;;;;2.35;89.00;100861.70;1713955;82;25713;-74
2021/04/15 04:21:19;;;;;;;;;;;;;;;2.34;89.19;100861.84;1700413;82;27534;-74
2021/04/15 04:24:02;;;;;;;;;;;;;;;2.35;89.09;100866.99;1704347;82;26176;-73
2021/04/15 04:26:35;;;;;;;;;;;;;;;2.35;89.28;100868.82;1733952;82;25934;-74
2021/04/15 04:29:08;;;;;;;;;;;;;;;2.35;89.39;100867.50;1708948;82;26194;-74
2021/04/15 04:31:38;;;;;;;;;;;;;;;2.38;89.13;100867.22;1699636;82;26078;-73
2021/04/15 04:34:06;;;;;;;;;;;;;;;2.39;89.33;100866.75;1707812;82;27520;-74
2021/04/15 04:36:35;;;;;;;;;;;;;;;2.43;89.50;100868.17;1692140;82;25804;-74
2021/04/15 04:39:04;;;;;;;;;;;;;;;2.44;89.55;100868.54;1681921;82;25927;-74
2021/04/15 04:41:44;;;;;;;;;;;;;;;2.45;89.59;100868.41;1711029;82;25884;-73
2021/04/15 04:44:17;;;;;;;;;;;;;;;2.47;89.41;100870.91;1729937;82;26402;-74
2021/04/15 04:46:51;;;;;;;;;;;;;;;2.49;89.50;100870.30;1729467;82;28921;-74
2021/04/15 04:49:24;;;;;;;;;;;;;;;2.49;89.35;100873.78;1704616;82;26070;-74
2021/04/15 04:51:54;;;;;;;;;;;;;;;2.51;89.42;100846.73;1707777;82;26593;-74
2021/04/15 04:54:22;;;;;;;;;;;;;;;2.52;89.54;100867.41;1729805;82;26394;-74
2021/04/15 04:56:58;;;;;;;;;;;;;;;2.52;89.80;100871.37;1728374;82;26088;-74
2021/04/15 04:59:30;;;;;;;;;;;;;;;2.52;89.64;100867.41;1705451;82;27346;-73
2021/04/15 05:01:57;;;;;;;;;;;;;;;2.55;89.61;100871.09;1709299;82;26102;-74
2021/04/15 05:04:28;;;;;;;;;;;;;;;2.56;89.80;100872.31;1710261;82;25952;-74
2021/04/15 05:07:04;;;;;;;;;;;;;;;2.57;89.65;100868.68;1681374;84;25440;-73
2021/04/15 05:09:40;;;;;;;;;;;;;;;2.58;89.76;100862.44;1696868;82;25845;-74
2021/04/15 05:12:08;;;;;;;;;;;;;;;2.60;89.57;100859.66;1680472;83;27541;-73
2021/04/15 05:14:36;;;;;;;;;;;;;;;2.61;89.75;100856.88;1684599;84;25920;-73
2021/04/15 05:17:22;;;;;;;;;;;;;;;2.63;89.59;100860.73;1705402;82;25995;-73
2021/04/15 05:19:50;;;;;;;;;;;;;;;2.64;89.65;100863.23;1695674;82;25927;-73
2021/04/15 05:22:29;;;;;;;;;;;;;;;2.65;89.66;100854.32;1706545;82;26064;-74
2021/04/15 05:25:03;;;;;;;;;;;;;;;2.65;89.75;100858.28;1698278;83;28441;-74
2021/04/15 05:27:32;;;;;;;;;;;;;;;2.64;89.90;100854.46;1720514;82;26467;-74
2021/04/15 05:30:18;;;;;;;;;;;;;;;2.62;89.82;100857.72;1720784;82;26356;-74
2021/04/15 05:32:46;;;;;;;;;;;;;;;2.65;89.93;100862.25;1694953;82;26485;-72
2021/04/15 05:35:18;;;;;;;;;;;;;;;2.66;89.71;100861.30;1719948;82;26104;-74
2021/04/15 05:37:46;;;;;;;;;;;;;;;2.68;89.69;100862.01;1721527;82;27600;-73
2021/04/15 05:40:15;;;;;;;;;;;;;;;2.68;89.64;100854.08;1719267;82;26069;-74
2021/04/15 05:42:48;;;;;;;;;;;;;;;2.70;89.73;100856.10;1692287;83;26476;-73
2021/04/15 05:45:23;;;;;;;;;;;;;;;2.70;89.48;100864.03;1690227;83;25844;-74
2021/04/15 05:48:00;;;;;;;;;;;;;;;2.73;89.77;100859.82;1700973;82;25871;-74
2021/04/15 05:50:33;;;;;;;;;;;;;;;2.75;89.64;100864.50;1710555;82;27746;-74
2021/04/15 05:53:16;;;;;;;;;;;;;;;2.78;89.76;100856.28;1722264;82;25751;-74
2021/04/15 05:55:53;;;;;;;;;;;;;;;2.78;89.71;100858.11;1729537;82;25839;-74
2021/04/15 05:58:32;;;;;;;;;;;;;;;2.76;89.76;100854.77;1700584;82;25873;-74
2021/04/15 06:01:14;;;;;;;;;;;;;;;2.78;90.00;100855.47;1697057;82;26180;-75
2021/04/15 06:03:51;;;;;;;;;;;;;;;2.79;90.14;100850.52;1695591;82;28626;-74
2021/04/15 06:06:20;;;;;;;;;;;;;;;2.79;89.94;100855.33;1692136;82;26028;-75
2021/04/15 06:08:49;;;;;;;;;;;;;;;2.82;89.98;100854.23;1696851;82;26688;-75
2021/04/15 06:11:46;;;;;;;;;;;;;;;2.85;89.92;100857.92;1728827;82;25743;-74
2021/04/15 06:14:21;;;;;;;;;;;;;;;2.87;90.05;100847.56;1707314;82;25873;-74
2021/04/15 06:17:04;;;;;;;;;;;;;;;2.90;90.05;100847.31;1715982;82;28509;-74
2021/04/15 06:19:32;;;;;;;;;;;;;;;2.92;90.12;100851.14;1719032;82;25740;-75
2021/04/15 06:22:09;;;;;;;;;;;;;;;2.95;89.96;100849.06;1708338;82;25885;-75
2021/04/15 06:24:37;;;;;;;;;;;;;;;2.96;90.18;100844.61;1723320;82;25968;-73
2021/04/15 06:27:07;;;;;;;;;;;;;;;2.98;90.33;100836.91;1707260;82;26086;-74
2021/04/15 06:29:50;;;;;;;;;;;;;;;3.00;90.19;100836.77;1679002;82;28293;-73
2021/04/15 06:32:34;;;;;;;;;;;;;;;3.04;90.37;100835.52;1705091;82;26498;-74
2021/04/15 06:35:04;;;;;;;;;;;;;;;3.09;90.57;100826.70;1704197;82;25804;-74
2021/04/15 06:37:49;;;;;;;;;;;;;;;3.17;90.62;100833.48;1728722;82;26467;-73
2021/04/15 06:40:35;;;;;;;;;;;;;;;3.25;90.64;100829.68;1728999;82;25801;-74
2021/04/15 06:43:09;;;;;;;;;;;;;;;3.29;90.42;100824.97;1728819;82;27542;-74
2021/04/15 06:45:52;;;;;;;;;;;;;;;3.39;90.37;100823.19;1729093;82;25792;-74
2021/04/15 06:48:32;;;;;;;;;;;;;;;3.39;90.00;100824.50;1723829;82;25847;-74
2021/04/15 06:51:25;;;;;;;;;;;;;;;3.40;90.07;100831.49;1677654;84;25863;-74
2021/04/15 06:54:22;;;;;;;;;;;;;;;3.39;90.02;100831.13;1730889;82;25851;-74
2021/04/15 06:57:11;;;;;;;;;;;;;;;3.38;90.21;100828.95;1711546;82;27516;-74
2021/04/15 06:59:59;;;;;;;;;;;;;;;3.39;90.01;100828.48;1729207;82;26101;-74
2021/04/15 07:02:45;;;;;;;;;;;;;;;3.39;90.02;100826.67;1728993;82;25694;-74
2021/04/15 07:05:18;;;;;;;;;;;;;;;3.39;90.24;100830.64;1696687;82;26233;-73
2021/04/15 07:07:58;;;;;;;;;;;;;;;3.40;90.23;100832.30;1706327;82;25848;-74
2021/04/15 07:11:01;;;;;;;;;;;;;;;3.41;90.23;100831.83;1643987;82;27566;-74
2021/04/15 07:13:49;;;;;;;;;;;;;;;3.41;90.65;100831.83;1686953;83;26405;-74
2021/04/15 07:16:40;;;;;;;;;;;;;;;3.45;90.56;100835.88;1669411;83;25905;-74
2021/04/15 07:19:21;;;;;;;;;;;;;;;3.46;90.47;100836.24;1659057;83;26410;-74
2021/04/15 07:22:08;;;;;;;;;;;;;;;3.48;90.60;100835.62;1669016;83;25801;-74
2021/04/15 07:25:02;;;;;;;;;;;;;;;3.49;90.68;100838.59;1667096;85;27574;-74
2021/04/15 07:28:04;;;;;;;;;;;;;;;3.52;90.86;100837.86;1680924;83;26054;-74
2021/04/15 07:30:52;;;;;;;;;;;;;;;3.53;90.64;100834.22;1674806;83;25845;-73
2021/04/15 07:33:42;;;;;;;;;;;;;;;3.56;90.72;100842.39;1643896;85;26306;-74
2021/04/15 07:36:31;;;;;;;;;;;;;;;3.58;90.70;100842.61;1637828;85;26587;-74
2021/04/15 07:39:08;;;;;;;;;;;;;;;3.59;90.58;100840.30;1640072;85;28518;-74
2021/04/15 07:41:57;;;;;;;;;;;;;;;3.61;90.66;100842.34;1652581;84;25821;-74
2021/04/15 07:44:29;;;;;;;;;;;;;;;3.61;90.58;100841.03;1669883;85;25411;-73
2021/04/15 07:47:33;;;;;;;;;;;;;;;3.63;90.47;100846.17;1679515;84;26702;-74
2021/04/15 07:50:27;;;;;;;;;;;;;;;3.64;90.58;100844.70;1666980;83;25914;-74
2021/04/15 07:53:18;;;;;;;;;;;;;;;3.67;90.67;100840.95;1642969;85;27559;-74
2021/04/15 07:56:11;;;;;;;;;;;;;;;3.69;90.41;100837.20;1687912;84;25826;-74
2021/04/15 07:58:42;;;;;;;;;;;;;;;3.71;90.55;100851.63;1674996;84;25954;-74
2021/04/15 08:01:32;;;;;;;;;;;;;;;3.70;90.31;100852.61;1684145;84;26837;-73
2021/04/15 08:04:20;;;;;;;;;;;;;;;3.70;90.31;100852.61;1649717;85;25828;-74
2021/04/15 08:07:22;;;;;;;;;;;;;;;3.74;90.50;100854.83;1659883;84;28542;-74
2021/04/15 08:10:16;;;;;;;;;;;;;;;3.78;90.55;100852.76;1685223;84;25390;-74
2021/04/15 08:13:04;;;;;;;;;;;;;;;3.79;90.51;100855.27;1656933;85;25918;-74
2021/04/15 08:15:34;;;;;;;;;;;;;;;3.79;90.35;100855.27;1661774;84;26509;-74
2021/04/15 08:18:28;;;;;;;;;;;;;;;3.82;90.71;100858.13;1652797;84;26172;-74
2021/04/15 08:21:20;;;;;;;;;;;;;;;3.81;90.22;100855.96;1653377;84;28109;-75
2021/04/15 08:24:13;;;;;;;;;;;;;;;3.80;90.19;100855.62;1653611;84;26273;-74
2021/04/15 08:27:13;;;;;;;;;;;;;;;3.82;90.48;100855.00;1708747;82;25814;-75
2021/04/15 08:29:50;;;;;;;;;;;;;;;3.83;90.43;100858.47;1654991;82;26488;-74
2021/04/15 08:32:33;;;;;;;;;;;;;;;3.86;90.51;100858.20;1716664;82;26148;-73
2021/04/15 08:35:16;;;;;;;;;;;;;;;3.88;90.61;100859.75;1695804;82;28308;-74
2021/04/15 08:37:50;;;;;;;;;;;;;;;3.87;90.48;100858.05;1719005;82;25696;-74
2021/04/15 08:40:49;;;;;;;;;;;;;;;3.88;90.54;100858.42;1694585;83;25778;-75
2021/04/15 08:43:51;;;;;;;;;;;;;;;3.90;90.45;100857.80;1688596;82;26502;-74
2021/04/15 08:46:20;;;;;;;;;;;;;;;3.90;90.29;100855.62;1721013;82;25752;-73
2021/04/15 08:48:57;;;;;;;;;;;;;;;3.89;90.52;100857.42;1678160;82;27439;-74
2021/04/15 08:52:01;;;;;;;;;;;;;;;3.93;90.70;100859.34;1706302;82;26161;-74
2021/04/15 08:54:40;;;;;;;;;;;;;;;3.93;90.60;100856.17;1696194;83;25918;-75
2021/04/15 08:57:43;;;;;;;;;;;;;;;3.96;90.77;100852.41;1719311;82;25930;-74
2021/04/15 09:00:30;;;;;;;;;;;;;;;3.99;90.96;100850.83;1689943;83;25814;-75
2021/04/15 09:03:20;;;;;;;;;;;;;;;4.04;90.95;100852.59;1697223;82;27655;-75
2021/04/15 09:06:12;;;;;;;;;;;;;;;4.05;90.99;100848.09;1699819;82;25747;-74
2021/04/15 09:09:16;;;;;;;;;;;;;;;4.08;90.92;100853.13;1700571;82;25998;-75
2021/04/15 09:12:09;;;;;;;;;;;;;;;4.12;90.94;100853.20;1719162;82;25721;-74
2021/04/15 09:14:49;;;;;;;;;;;;;;;4.21;91.06;100857.67;1693041;82;25801;-74
2021/04/15 09:17:31;;;;;;;;;;;;;;;4.24;90.84;100845.45;1704060;82;27616;-74
2021/04/15 09:20:08;;;;;;;;;;;;;;;4.26;90.70;100848.31;1722169;82;26127;-75
2021/04/15 09:22:51;;;;;;;;;;;;;;;4.27;90.45;100850.00;1743112;82;25786;-75
2021/04/15 09:25:49;;;;;;;;;;;;;;;4.32;90.68;100849.07;1702707;83;25844;-74
2021/04/15 09:28:28;;;;;;;;;;;;;;;4.32;90.58;100852.23;1688798;83;25829;-74
2021/04/15 09:31:16;;;;;;;;;;;;;;;4.32;90.25;100851.72;1707810;83;28465;-74
2021/04/15 09:34:09;;;;;;;;;;;;;;;4.35;90.37;100854.59;1685093;82;26448;-74
2021/04/15 09:37:05;;;;;;;;;;;;;;;4.35;90.36;100855.43;1710348;82;25661;-75
2021/04/15 09:39:42;;;;;;;;;;;;;;;4.37;90.08;100853.47;1709969;82;25935;-75
2021/04/15 09:42:37;;;;;;;;;;;;;;;4.38;89.87;100855.64;1723302;82;26540;-75
2021/04/15 09:45:34;;;;;;;;;;;;;;;4.36;89.43;100850.45;1721768;82;27587;-75
2021/04/15 09:48:17;;;;;;;;;;;;;;;4.31;89.38;100851.88;1706586;82;25867;-74
2021/04/15 09:50:53;;;;;;;;;;;;;;;4.32;89.88;100853.56;1715003;82;26483;-74
2021/04/15 09:53:46;;;;;;;;;;;;;;;4.33;89.70;100851.23;1719224;82;26253;-75
2021/04/15 09:56:43;;;;;;;;;;;;;;;4.36;90.08;100853.11;1717570;82;25929;-75
2021/04/15 09:59:25;;;;;;;;;;;;;;;4.40;90.16;100860.31;1724087;82;28450;-75
2021/04/15 10:01:56;;;;;;;;;;;;;;;4.44;90.34;100853.75;1710945;82;26058;-75
2021/04/15 10:04:32;;;;;;;;;;;;;;;4.46;90.04;100851.79;1732386;82;25820;-74
2021/04/15 10:07:05;;;;;;;;;;;;;;;4.49;90.34;100850.20;1731694;82;26552;-74
2021/04/15 10:09:57;;;;;;;;;;;;;;;4.51;89.74;100852.22;1717420;82;26465;-74
2021/04/15 10:12:54;;;;;;;;;;;;;;;4.53;89.73;100850.25;1706817;82;27536;-75
2021/04/15 10:15:24;;;;;;;;;;;;;;;4.54;89.69;100855.41;1683209;82;25768;-75
2021/04/15 10:18:04;;;;;;;;;;;;;;;4.55;89.62;100854.45;1710675;82;25795;-75
2021/04/15 10:20:51;;;;;;;;;;;;;;;4.57;89.60;100847.18;1704489;82;26515;-75
2021/04/15 10:23:47;;;;;;;;;;;;;;;4.59;89.72;100846.55;1711709;82;26409;-75
2021/04/15 10:26:45;;;;;;;;;;;;;;;4.63;89.93;100847.94;1729077;82;28491;-75
2021/04/15 10:29:42;;;;;;;;;;;;;;;4.68;89.45;100846.99;1703048;82;26101;-75
2021/04/15 10:32:12;;;;;;;;;;;;;;;4.70;89.48;100849.01;1702353;82;26437;-76
2021/04/15 10:34:43;;;;;;;;;;;;;;;4.74;89.68;100850.06;1696837;82;25825;-75
2021/04/15 10:37:29;;;;;;;;;;;;;;;4.80;89.94;100850.81;1700606;82;26304;-74
2021/04/15 10:40:33;;;;;;;;;;;;;;;4.80;89.57;100849.00;1732115;81;27345;-74
2021/04/15 10:43:37;;;;;;;;;;;;;;;4.84;89.41;100842.42;1703480;82;25865;-75
2021/04/15 10:46:27;;;;;;;;;;;;;;;4.88;89.52;100844.29;1704137;82;25805;-74
2021/04/15 10:49:17;;;;;;;;;;;;;;;4.88;88.91;100855.75;1727088;82;26589;-75
2021/04/15 10:52:08;;;;;;;;;;;;;;;4.88;89.36;100851.77;1731554;82;25766;-75
2021/04/15 10:54:37;;;;;;;;;;;;;;;4.92;89.23;100847.84;1718339;82;28393;-75
2021/04/15 10:57:20;;;;;;;;;;;;;;;4.91;89.19;100846.67;1730764;82;25866;-75
2021/04/15 10:59:49;;;;;;;;;;;;;;;4.94;89.33;100849.05;1705300;82;26441;-75
2021/04/15 11:02:26;;;;;;;;;;;;;;;4.96;89.27;100855.86;1702272;82;26321;-74
2021/04/15 11:05:00;;;;;;;;;;;;;;;4.97;89.23;100853.56;1731645;82;25890;-74
2021/04/15 11:07:31;;;;;;;;;;;;;;;4.96;88.92;100853.72;1689707;82;27483;-74
2021/04/15 11:10:04;;;;;;;;;;;;;;;4.92;88.50;100855.80;1700194;82;25785;-75
2021/04/15 11:12:31;;;;;;;;;;;;;;;4.93;88.57;100857.49;1726971;82;25813;-75
2021/04/15 11:15:22;;;;;;;;;;;;;;;4.98;89.01;100859.72;1705863;83;25852;-75
2021/04/15 11:17:50;;;;;;;;;;;;;;;4.97;88.67;100858.88;1727407;82;26382;-74
2021/04/15 11:20:26;;;;;;;;;;;;;;;4.97;88.93;100862.85;1692625;82;27376;-74
2021/04/15 11:23:05;;;;;;;;;;;;;;;5.01;88.98;100863.39;1718719;82;25653;-75
2021/04/15 11:25:42;;;;;;;;;;;;;;;5.02;88.74;100862.42;1706743;82;25830;-74
2021/04/15 11:28:24;;;;;;;;;;;;;;;5.05;88.79;100863.44;1707002;82;25907;-74
2021/04/15 11:30:54;;;;;;;;;;;;;;;5.03;88.93;100862.75;1728422;82;26057;-74
2021/04/15 11:33:36;;;;;;;;;;;;;;;5.01;88.67;100864.72;1656670;84;27538;-73
2021/04/15 11:36:22;;;;;;;;;;;;;;;4.97;88.57;100867.32;1694787;83;25854;-74
2021/04/15 11:39:07;;;;;;;;;;;;;;;4.97;88.73;100860.69;1698149;82;25752;-73
2021/04/15 11:41:53;;;;;;;;;;;;;;;4.99;88.74;100866.69;1701927;82;25892;-73
2021/04/15 11:44:27;;;;;;;;;;;;;;;5.01;88.92;100867.37;1697687;82;25804;-74
2021/04/15 11:46:57;;;;;;;;;;;;;;;5.05;88.81;100866.94;1694743;82;28042;-74
2021/04/15 11:49:37;;;;;;;;;;;;;;;5.09;88.78;100868.33;1696474;82;26120;-74
2021/04/15 11:52:28;;;;;;;;;;;;;;;5.07;88.15;100866.30;1719475;82;25613;-74
2021/04/15 11:54:59;;;;;;;;;;;;;;;5.05;88.24;100871.41;1714853;82;26399;-74
2021/04/15 11:57:34;;;;;;;;;;;;;;;5.06;88.84;100862.48;1717958;82;26035;-74
2021/04/15 12:00:05;;;;;;;;;;;;;;;5.08;88.71;100866.67;1691430;81;28541;-74
2021/04/15 12:02:49;;;;;;;;;;;;;;;5.11;88.65;100864.22;1695277;82;26716;-74
2021/04/15 12:05:19;;;;;;;;;;;;;;;5.15;88.73;100865.59;1690284;82;25823;-74
2021/04/15 12:07:53;;;;;;;;;;;;;;;5.16;88.48;100857.96;1724725;82;25821;-74
2021/04/15 12:10:22;;;;;;;;;;;;;;;5.16;88.54;100862.78;1677024;83;26412;-74
2021/04/15 12:12:51;;;;;;;;;;;;;;;5.20;88.78;100854.02;1674914;84;28591;-74
2021/04/15 12:15:22;;;;;;;;;;;;;;;5.26;88.78;100858.78;1649871;82;25829;-76
2021/04/15 12:17:53;;;;;;;;;;;;;;;5.28;88.76;100855.48;1643085;84;36899;-74
2021/04/15 12:20:26;;;;;;;;;;;;;;;5.31;88.62;100856.50;1726000;82;26412;-75
2021/04/15 12:23:20;;;;;;;;;;;;;;;5.37;88.78;100859.89;1720518;82;25721;-74
2021/04/15 12:25:56;;;;;;;;;;;;;;;5.40;88.79;100858.28;1701052;82;27334;-75
2021/04/15 12:28:33;;;;;;;;;;;;;;;5.40;88.42;100859.12;1699126;82;25738;-74
2021/04/15 12:31:09;;;;;;;;;;;;;;;5.40;88.57;100863.11;1709234;82;26143;-74
2021/04/15 12:33:39;;;;;;;;;;;;;;;5.37;87.93;100864.72;1706463;82;25783;-74
2021/04/15 12:36:18;;;;;;;;;;;;;;;5.36;88.33;100863.55;1701714;82;26225;-74
2021/04/15 12:38:55;;;;;;;;;;;;;;;5.36;88.29;100862.22;1701270;82;27625;-74
2021/04/15 12:41:23;;;;;;;;;;;;;;;5.38;88.34;100866.89;1692778;82;26531;-74
2021/04/15 12:44:12;;;;;;;;;;;;;;;5.39;88.31;100862.75;1705496;82;25435;-74
2021/04/15 12:46:40;;;;;;;;;;;;;;;5.42;88.30;100866.94;1689621;83;25866;-74
2021/04/15 12:49:10;;;;;;;;;;;;;;;5.46;88.39;100865.66;1677554;82;25882;-75
2021/04/15 12:51:39;;;;;;;;;;;;;;;5.44;88.22;100868.95;1713693;82;26980;-74
2021/04/15 12:54:10;;;;;;;;;;;;;;;5.43;88.07;100868.63;1709351;83;25867;-74
2021/04/15 12:56:48;;;;;;;;;;;;;;;5.43;88.10;100871.28;1659401;83;25880;-74
2021/04/15 12:59:21;;;;;;;;;;;;;;;5.40;88.09;100875.06;1677641;83;25811;-74
2021/04/15 13:01:49;;;;;;;;;;;;;;;5.38;88.17;100873.53;1712441;83;25760;-75
2021/04/15 13:04:22;;;;;;;;;;;;;;;5.39;88.24;100865.89;1662678;81;27447;-75
2021/04/15 13:07:05;;;;;;;;;;;;;;;5.41;88.37;100871.41;1695646;83;26474;-74
2021/04/15 13:09:35;;;;;;;;;;;;;;;5.45;88.47;100874.63;1688689;83;25905;-74
2021/04/15 13:12:21;;;;;;;;;;;;;;;5.45;88.58;100870.64;1662001;83;26257;-74
2021/04/15 13:14:57;;;;;;;;;;;;;;;5.43;88.50;100869.44;1697876;83;25981;-75
2021/04/15 13:17:40;;;;;;;;;;;;;;;5.44;88.38;100868.95;1697022;81;27508;-75
2021/04/15 13:20:10;;;;;;;;;;;;;;;5.42;88.39;100867.78;1671749;83;25618;-75
2021/04/15 13:22:40;;;;;;;;;;;;;;;5.43;88.47;100865.45;1726480;81;25757;-75
2021/04/15 13:25:13;;;;;;;;;;;;;;;5.45;88.73;100865.33;1672108;84;25810;-75
2021/04/15 13:27:43;;;;;;;;;;;;;;;5.48;88.55;100862.36;1696614;82;25774;-74
2021/04/15 13:30:22;;;;;;;;;;;;;;;5.45;88.41;100862.67;1654369;82;28551;-75
2021/04/15 13:33:18;;;;;;;;;;;;;;;5.44;88.32;100863.64;1695888;83;26541;-79
2021/04/15 13:35:53;;;;;;;;;;;;;;;5.48;88.58;100864.53;1675624;84;25867;-76
2021/04/15 13:38:38;;;;;;;;;;;;;;;5.52;88.66;100870.38;1704214;82;25558;-77
2021/04/15 13:41:24;;;;;;;;;;;;;;;5.53;88.83;100871.22;1706958;82;25802;-77
2021/04/15 13:43:58;;;;;;;;;;;;;;;5.49;88.59;100871.50;1699683;82;27542;-78
2021/04/15 13:46:32;;;;;;;;;;;;;;;5.46;88.66;100869.16;1702397;82;25906;-77